Time;durP1;ratioP1;P1;durP2;ratioP2;P2;SDS_P1;SDS_P2;PMS_P1;PMS_P2;Temp;Humidity;BMP_temperature;BMP_pressure;BME280_temperature;BME280_humidity;BME280_pressure;Samples;Min_cycle;Max_cycle;Signal;HPM_P1;HPM_P2
2024/01/14 00:00:34;;;;;;;18.33;9.88;;;;;;;3.18;100.00;101588.75;5021943;28;20050;-76
2024/01/14 00:03:01;;;;;;;15.55;9.77;;;;;;;3.19;100.00;101585.75;5021104;28;20101;-75
2024/01/14 00:05:28;;;;;;;20.75;11.00;;;;;;;3.18;100.00;101584.25;5021112;28;20046;-75
2024/01/14 00:07:56;;;;;;;19.00;10.07;;;;;;;3.18;100.00;101580.84;5021150;28;20529;-75
2024/01/14 00:10:22;;;;;;;17.67;10.60;;;;;;;3.17;100.00;101571.47;5018224;28;20049;-76
2024/01/14 00:12:50;;;;;;;15.95;9.93;;;;;;;3.17;100.00;101574.09;5020606;28;20046;-75
2024/01/14 00:15:18;;;;;;;18.15;10.45;;;;;;;3.17;100.00;101572.22;5021121;28;20053;-75
2024/01/14 00:17:45;;;;;;;17.80;10.55;;;;;;;3.16;100.00;101565.44;5018584;28;20050;-75
2024/01/14 00:20:12;;;;;;;21.77;10.70;;;;;;;3.16;100.00;101562.81;5024188;28;20054;-81
2024/01/14 00:22:39;;;;;;;17.52;10.98;;;;;;;3.17;100.00;101561.69;5031385;28;20497;-81
2024/01/14 00:25:06;;;;;;;23.38;11.38;;;;;;;3.18;100.00;101570.34;5031799;28;20045;-81
2024/01/14 00:27:32;;;;;;;23.10;12.68;;;;;;;3.18;100.00;101567.69;5021873;28;20046;-81
2024/01/14 00:30:00;;;;;;;19.10;11.52;;;;;;;3.18;100.00;101568.47;5020722;28;20090;-80
2024/01/14 00:32:27;;;;;;;22.70;12.07;;;;;;;3.16;100.00;101562.06;5025242;28;20028;-82
2024/01/14 00:34:53;;;;;;;22.00;12.02;;;;;;;3.17;100.00;101563.56;5027415;28;20054;-81
2024/01/14 00:37:20;;;;;;;27.00;12.60;;;;;;;3.16;100.00;101562.06;5033090;28;20101;-81
2024/01/14 00:39:47;;;;;;;21.77;12.90;;;;;;;3.15;100.00;101563.94;5033111;28;20109;-82
2024/01/14 00:42:13;;;;;;;25.33;14.30;;;;;;;3.18;100.00;101562.44;5036651;28;20034;-81
2024/01/14 00:44:43;;;;;;;26.38;13.63;;;;;;;3.18;100.00;101551.91;5033117;28;20069;-81
2024/01/14 00:47:10;;;;;;;24.63;13.13;;;;;;;3.14;100.00;101541.38;5039118;28;20073;-81
2024/01/14 00:49:37;;;;;;;25.77;14.93;;;;;;;3.15;100.00;101542.13;5036094;28;20049;-81
2024/01/14 00:52:04;;;;;;;23.67;14.02;;;;;;;3.13;100.00;101541.75;5030322;28;20050;-80
2024/01/14 00:54:30;;;;;;;31.50;15.88;;;;;;;3.11;100.00;101536.09;5034760;28;20050;-80
2024/01/14 00:56:57;;;;;;;30.30;16.25;;;;;;;3.13;100.00;101539.09;5029985;28;20042;-81
2024/01/14 00:59:24;;;;;;;32.58;15.00;;;;;;;3.12;100.00;101527.06;5041725;28;20097;-81
2024/01/14 01:01:50;;;;;;;28.67;15.15;;;;;;;3.12;100.00;101521.81;5041352;28;20485;-80
2024/01/14 01:04:17;;;;;;;28.80;14.35;;;;;;;3.10;100.00;101505.63;5032321;28;20043;-80
2024/01/14 01:06:44;;;;;;;25.63;13.85;;;;;;;3.09;100.00;101512.78;5030489;28;20061;-80
2024/01/14 01:09:11;;;;;;;26.20;13.63;;;;;;;3.04;100.00;101510.50;5043905;28;20048;-79
2024/01/14 01:11:38;;;;;;;34.80;14.82;;;;;;;3.04;100.00;101507.88;5022032;28;20051;-79
2024/01/14 01:14:05;;;;;;;33.20;15.50;;;;;;;3.04;100.00;101504.47;5030229;28;20038;-80
2024/01/14 01:16:31;;;;;;;33.47;14.73;;;;;;;3.03;100.00;101501.09;5032229;28;20070;-79
2024/01/14 01:18:58;;;;;;;25.10;14.48;;;;;;;3.02;100.00;101502.22;5032336;28;20141;-80
2024/01/14 01:21:25;;;;;;;32.10;14.50;;;;;;;3.00;100.00;101499.94;5025000;28;20143;-74
2024/01/14 01:23:51;;;;;;;28.77;15.15;;;;;;;3.02;100.00;101507.47;5022228;28;20046;-74
2024/01/14 01:26:18;;;;;;;34.15;16.92;;;;;;;3.01;100.00;101498.06;5024488;28;20498;-75
2024/01/14 01:28:45;;;;;;;35.58;16.23;;;;;;;2.99;100.00;101495.06;5024368;28;20046;-75
2024/01/14 01:31:11;;;;;;;43.65;16.92;;;;;;;2.98;100.00;101496.94;5024893;28;20101;-74
2024/01/14 01:33:38;;;;;;;36.28;17.10;;;;;;;2.97;100.00;101503.31;5020716;28;20159;-74
2024/01/14 01:36:06;;;;;;;32.10;16.63;;;;;;;2.98;100.00;101496.94;5026791;28;20069;-75
2024/01/14 01:38:32;;;;;;;36.08;17.98;;;;;;;2.98;100.00;101491.69;5022834;28;20039;-75
2024/01/14 01:40:59;;;;;;;32.53;16.52;;;;;;;3.00;100.00;101491.31;5021045;28;20042;-75
2024/01/14 01:43:25;;;;;;;36.53;17.60;;;;;;;3.00;100.00;101486.81;5023031;28;20504;-74
2024/01/14 01:45:55;;;;;;;30.95;16.80;;;;;;;2.99;100.00;101481.91;5024405;28;20039;-74
2024/01/14 01:48:22;;;;;;;38.05;16.73;;;;;;;2.98;100.00;101475.13;5022690;28;20050;-75
2024/01/14 01:50:51;;;;;;;34.40;15.95;;;;;;;2.96;100.00;101472.13;5023986;28;20043;-75
2024/01/14 01:53:18;;;;;;;40.67;17.50;;;;;;;2.92;100.00;101471.34;5021735;28;20117;-74
2024/01/14 01:55:45;;;;;;;40.15;17.10;;;;;;;2.90;100.00;101474.34;5021171;28;20054;-75
2024/01/14 01:58:12;;;;;;;35.75;17.15;;;;;;;2.87;100.00;101472.44;5022360;28;20831;-74
2024/01/14 02:00:39;;;;;;;36.47;16.45;;;;;;;2.84;100.00;101473.19;5023142;28;20042;-74
2024/01/14 02:03:07;;;;;;;33.95;15.77;;;;;;;2.79;100.00;101476.19;5022523;28;20093;-75
2024/01/14 02:05:39;;;;;;;36.58;16.13;;;;;;;2.75;100.00;101470.16;5019991;28;20505;-74
2024/01/14 02:08:06;;;;;;;26.85;14.55;;;;;;;2.71;100.00;101466.75;5012913;28;20046;-74
2024/01/14 02:10:33;;;;;;;40.17;15.38;;;;;;;2.69;100.00;101466.38;5017479;28;20057;-74
2024/01/14 02:13:00;;;;;;;39.20;15.75;;;;;;;2.65;100.00;101466.34;5027329;28;20050;-74
2024/01/14 02:15:26;;;;;;;31.45;15.68;;;;;;;2.63;100.00;101462.56;5023411;28;20046;-75
2024/01/14 02:17:53;;;;;;;29.55;14.75;;;;;;;2.60;100.00;101465.94;5023876;28;20152;-75
2024/01/14 02:20:19;;;;;;;28.27;15.00;;;;;;;2.57;100.00;101466.66;5021521;28;20046;-74
2024/01/14 02:22:49;;;;;;;31.08;15.50;;;;;;;2.56;100.00;101462.53;5022301;28;20400;-74
2024/01/14 02:25:15;;;;;;;34.63;14.52;;;;;;;2.56;100.00;101450.13;5023220;28;20058;-73
2024/01/14 02:27:42;;;;;;;29.40;15.02;;;;;;;2.56;100.00;101454.63;5023213;28;20607;-74
2024/01/14 02:30:09;;;;;;;35.03;15.25;;;;;;;2.58;100.00;101449.75;5024666;28;20054;-76
2024/01/14 02:32:37;;;;;;;32.38;15.52;;;;;;;2.57;100.00;101450.88;5021066;28;20054;-74
2024/01/14 02:35:05;;;;;;;32.85;15.45;;;;;;;2.58;100.00;101447.91;5021687;28;20799;-75
2024/01/14 02:37:33;;;;;;;36.20;16.35;;;;;;;2.57;100.00;101451.63;5017407;28;20071;-74
2024/01/14 02:39:59;;;;;;;35.88;15.95;;;;;;;2.54;100.00;101447.13;5020113;28;20046;-74
2024/01/14 02:42:26;;;;;;;37.33;18.15;;;;;;;2.58;100.00;101447.13;5021702;28;20042;-74
2024/01/14 02:44:53;;;;;;;38.80;18.42;;;;;;;2.57;100.00;101440.38;5020659;28;20042;-74
2024/01/14 02:47:19;;;;;;;36.80;17.27;;;;;;;2.56;100.00;101436.22;5024501;28;20120;-75
2024/01/14 02:49:46;;;;;;;35.47;17.70;;;;;;;2.57;100.00;101430.63;5022340;28;20159;-75
2024/01/14 02:52:13;;;;;;;32.67;17.75;;;;;;;2.58;100.00;101434.75;5022181;28;20042;-75
2024/01/14 02:54:40;;;;;;;33.65;18.00;;;;;;;2.57;100.00;101425.34;5025058;28;20101;-75
2024/01/14 02:57:06;;;;;;;35.13;17.98;;;;;;;2.57;100.00;101425.34;5018634;28;20080;-75
2024/01/14 02:59:33;;;;;;;37.95;17.83;;;;;;;2.57;100.00;101422.72;5016335;28;20544;-75
2024/01/14 03:01:59;;;;;;;37.88;17.13;;;;;;;2.57;100.00;101414.84;5022278;28;20057;-75
2024/01/14 03:04:27;;;;;;;38.88;17.67;;;;;;;2.57;100.00;101416.72;5018354;28;20661;-74
2024/01/14 03:06:54;;;;;;;31.33;16.77;;;;;;;2.56;100.00;101423.84;5019931;28;20043;-74
2024/01/14 03:09:21;;;;;;;32.00;15.90;;;;;;;2.55;100.00;101414.44;5019103;28;20046;-75
2024/01/14 03:11:47;;;;;;;32.85;16.25;;;;;;;2.55;100.00;101413.69;5024555;28;20053;-75
2024/01/14 03:14:14;;;;;;;38.03;16.85;;;;;;;2.54;100.00;101406.94;5020894;28;20066;-75
2024/01/14 03:16:41;;;;;;;35.67;16.83;;;;;;;2.53;100.00;101402.78;5022306;28;21030;-75
2024/01/14 03:19:07;;;;;;;38.92;17.08;;;;;;;2.55;100.00;101398.69;5019705;28;20046;-76
2024/01/14 03:21:34;;;;;;;34.30;16.80;;;;;;;2.56;100.00;101396.81;5023053;28;20053;-74
2024/01/14 03:24:00;;;;;;;34.08;16.77;;;;;;;2.55;100.00;101390.78;5019944;28;20132;-74
2024/01/14 03:26:27;;;;;;;35.83;16.48;;;;;;;2.56;100.00;101394.19;5022100;28;20050;-77
2024/01/14 03:28:54;;;;;;;34.00;15.95;;;;;;;2.53;100.00;101384.41;5019846;28;20517;-77
2024/01/14 03:31:20;;;;;;;30.52;16.02;;;;;;;2.51;100.00;101386.63;5022099;28;20073;-76
2024/01/14 03:33:47;;;;;;;35.55;17.08;;;;;;;2.49;100.00;101383.63;5019798;28;20398;-76
2024/01/14 03:36:14;;;;;;;31.02;15.75;;;;;;;2.49;100.00;101375.75;5016715;28;20054;-76
2024/01/14 03:38:42;;;;;;;34.92;17.27;;;;;;;2.48;100.00;101372.34;5017651;28;20043;-77
2024/01/14 03:41:08;;;;;;;38.42;17.45;;;;;;;2.47;100.00;101381.38;5022429;28;20125;-77
2024/01/14 03:43:35;;;;;;;36.85;17.88;;;;;;;2.46;100.00;101373.84;5017847;28;20124;-77
2024/01/14 03:46:02;;;;;;;36.38;17.67;;;;;;;2.44;100.00;101373.47;5019298;28;20050;-77
2024/01/14 03:48:28;;;;;;;38.67;17.88;;;;;;;2.43;100.00;101377.22;5016320;28;20568;-77
2024/01/14 03:50:55;;;;;;;41.22;18.75;;;;;;;2.43;100.00;101369.31;5023304;28;20046;-77
2024/01/14 03:53:22;;;;;;;38.22;18.20;;;;;;;2.42;100.00;101367.81;5021860;28;20055;-78
2024/01/14 03:55:48;;;;;;;33.90;17.17;;;;;;;2.39;100.00;101364.06;5026030;28;20046;-78
2024/01/14 03:58:15;;;;;;;37.22;18.10;;;;;;;2.38;100.00;101367.81;5025596;28;20046;-78
2024/01/14 04:00:42;;;;;;;39.30;18.27;;;;;;;2.36;100.00;101353.53;5021193;28;20525;-78
2024/01/14 04:03:09;;;;;;;44.60;16.70;;;;;;;2.33;100.00;101361.03;5019841;28;20501;-77
2024/01/14 04:05:35;;;;;;;35.13;18.23;;;;;;;2.32;100.00;101356.91;5024593;28;20065;-77
2024/01/14 04:08:02;;;;;;;38.20;17.48;;;;;;;2.31;100.00;101354.66;5025919;28;20042;-77
2024/01/14 04:10:29;;;;;;;34.65;17.10;;;;;;;2.30;100.00;101343.38;5020184;28;20455;-77
2024/01/14 04:12:55;;;;;;;36.10;17.77;;;;;;;2.30;100.00;101343.38;5025486;28;20077;-77
2024/01/14 04:15:22;;;;;;;39.00;18.23;;;;;;;2.29;100.00;101349.00;5025314;28;20046;-77
2024/01/14 04:17:49;;;;;;;32.85;17.50;;;;;;;2.27;100.00;101344.13;5023245;28;20046;-78
2024/01/14 04:20:15;;;;;;;34.97;17.85;;;;;;;2.28;100.00;101336.97;5023614;28;20441;-78
2024/01/14 04:22:42;;;;;;;40.53;18.50;;;;;;;2.25;100.00;101335.84;5026884;28;20056;-78
2024/01/14 04:25:09;;;;;;;37.60;18.58;;;;;;;2.23;100.00;101329.44;5024877;28;20050;-78
2024/01/14 04:27:37;;;;;;;42.38;18.33;;;;;;;2.22;100.00;101330.56;5021845;28;20051;-78
2024/01/14 04:30:05;;;;;;;34.10;17.45;;;;;;;2.19;100.00;101334.69;5026021;28;20081;-73
2024/01/14 04:32:32;;;;;;;41.92;19.00;;;;;;;2.18;100.00;101329.78;5022223;28;20046;-74
2024/01/14 04:34:59;;;;;;;43.88;19.45;;;;;;;2.17;100.00;101326.41;5025020;28;20518;-74
2024/01/14 04:37:29;;;;;;;39.72;18.17;;;;;;;2.13;100.00;101324.88;5023742;28;20597;-74
2024/01/14 04:39:55;;;;;;;38.47;19.50;;;;;;;2.12;100.00;101324.13;5026661;28;20045;-74
2024/01/14 04:42:23;;;;;;;38.63;18.38;;;;;;;2.13;100.00;101325.63;5019827;28;20050;-74
2024/01/14 04:44:50;;;;;;;35.05;18.50;;;;;;;2.13;100.00;101323.00;5027314;28;20056;-74
2024/01/14 04:47:16;;;;;;;35.08;18.45;;;;;;;2.14;100.00;101323.75;5021949;28;20105;-74
2024/01/14 04:49:43;;;;;;;40.97;19.13;;;;;;;2.13;100.00;101320.38;5026686;28;20046;-74
2024/01/14 04:52:10;;;;;;;39.45;18.83;;;;;;;2.13;100.00;101311.75;5023145;28;20523;-74
2024/01/14 04:54:36;;;;;;;40.33;19.67;;;;;;;2.13;100.00;101317.00;5025013;28;20045;-73
2024/01/14 04:57:03;;;;;;;34.95;18.67;;;;;;;2.14;100.00;101310.63;5021836;28;20536;-74
2024/01/14 04:59:30;;;;;;;38.08;18.83;;;;;;;2.13;100.00;101307.25;5025825;28;20061;-74
2024/01/14 05:01:57;;;;;;;39.25;19.42;;;;;;;2.15;100.00;101304.25;5021338;28;20050;-74
2024/01/14 05:04:23;;;;;;;36.63;18.55;;;;;;;2.15;100.00;101299.00;5023995;28;20129;-74
2024/01/14 05:06:50;;;;;;;40.22;19.77;;;;;;;2.15;100.00;101296.38;5024295;28;20128;-74
2024/01/14 05:09:17;;;;;;;39.45;18.33;;;;;;;2.13;100.00;101299.38;5017718;28;20438;-74
2024/01/14 05:11:44;;;;;;;39.88;19.83;;;;;;;2.11;100.00;101291.09;5022975;28;20093;-74
2024/01/14 05:14:10;;;;;;;37.00;20.20;;;;;;;2.12;100.00;101289.22;5024435;28;20044;-74
2024/01/14 05:16:37;;;;;;;38.88;18.25;;;;;;;2.08;100.00;101277.94;5024671;28;20049;-74
2024/01/14 05:19:04;;;;;;;44.42;19.90;;;;;;;2.09;100.00;101279.47;5025112;28;20045;-74
2024/01/14 05:21:30;;;;;;;37.55;17.95;;;;;;;2.07;100.00;101281.69;5023083;28;20057;-74
2024/01/14 05:23:57;;;;;;;36.08;17.98;;;;;;;2.06;100.00;101272.31;5024143;28;20052;-74
2024/01/14 05:26:24;;;;;;;42.15;20.83;;;;;;;2.04;100.00;101277.94;5023603;28;20051;-74
2024/01/14 05:28:51;;;;;;;38.42;19.98;;;;;;;2.00;100.00;101272.66;5024614;28;20047;-74
2024/01/14 05:31:18;;;;;;;37.60;18.33;;;;;;;1.99;100.00;101270.44;5016789;28;20073;-74
2024/01/14 05:33:44;;;;;;;33.67;18.00;;;;;;;1.99;100.00;101278.31;5024839;28;20525;-74
2024/01/14 05:36:11;;;;;;;36.75;18.42;;;;;;;1.99;100.00;101280.94;5024092;28;20053;-74
2024/01/14 05:38:38;;;;;;;32.92;18.45;;;;;;;1.98;100.00;101271.53;5025419;28;20191;-74
2024/01/14 05:41:04;;;;;;;38.33;18.35;;;;;;;1.99;100.00;101275.69;5022637;28;20563;-75
2024/01/14 05:43:31;;;;;;;35.25;17.23;;;;;;;1.98;100.00;101269.69;5023970;28;20121;-74
2024/01/14 05:45:58;;;;;;;33.10;18.90;;;;;;;1.96;100.00;101266.66;5023432;28;20050;-75
2024/01/14 05:48:25;;;;;;;35.10;18.10;;;;;;;1.97;100.00;101256.91;5022669;28;20046;-75
2024/01/14 05:50:51;;;;;;;34.15;17.83;;;;;;;1.97;100.00;101262.16;5024726;28;20046;-75
2024/01/14 05:53:19;;;;;;;37.58;18.42;;;;;;;1.95;100.00;101259.16;5021587;28;20041;-75
2024/01/14 05:55:45;;;;;;;35.40;17.83;;;;;;;1.94;100.00;101263.66;5018640;28;20046;-74
2024/01/14 05:58:12;;;;;;;38.88;17.98;;;;;;;1.93;100.00;101262.13;5022087;28;20498;-74
2024/01/14 06:00:38;;;;;;;38.38;18.48;;;;;;;1.94;100.00;101255.00;5023942;28;20147;-74
2024/01/14 06:03:05;;;;;;;37.13;17.73;;;;;;;1.94;100.00;101260.28;5024338;28;20057;-75
2024/01/14 06:05:32;;;;;;;45.70;19.85;;;;;;;1.92;100.00;101252.75;5019678;28;20081;-74
2024/01/14 06:07:58;;;;;;;42.15;19.50;;;;;;;1.93;100.00;101249.00;5024114;28;20052;-74
2024/01/14 06:10:25;;;;;;;41.88;19.02;;;;;;;1.94;100.00;101252.38;5021719;28;20041;-74
2024/01/14 06:12:52;;;;;;;38.55;20.13;;;;;;;1.93;100.00;101240.38;5019540;28;20057;-74
2024/01/14 06:15:19;;;;;;;39.92;19.20;;;;;;;1.91;100.00;101232.13;5022387;28;20406;-74
2024/01/14 06:17:46;;;;;;;37.63;19.42;;;;;;;1.92;100.00;101233.63;5023349;28;20054;-73
2024/01/14 06:20:12;;;;;;;41.47;19.25;;;;;;;1.89;100.00;101235.09;5021819;28;20121;-80
2024/01/14 06:22:39;;;;;;;35.88;19.00;;;;;;;1.88;100.00;101228.34;5023469;28;20038;-79
2024/01/14 06:25:06;;;;;;;40.42;18.25;;;;;;;1.87;100.00;101220.84;5035990;28;20065;-79
2024/01/14 06:27:32;;;;;;;43.75;20.63;;;;;;;1.85;100.00;101218.59;5043881;28;20042;-79
2024/01/14 06:30:01;;;;;;;44.25;20.77;;;;;;;1.87;100.00;101215.59;5026278;28;20576;-79
2024/01/14 06:32:28;;;;;;;42.33;19.15;;;;;;;1.84;100.00;101211.06;5027356;28;20064;-79
2024/01/14 06:34:54;;;;;;;37.42;19.00;;;;;;;1.83;100.00;101205.06;5020564;28;20102;-79
2024/01/14 06:37:21;;;;;;;40.72;19.27;;;;;;;1.82;100.00;101203.56;5044684;28;20057;-78
2024/01/14 06:39:49;;;;;;;36.88;19.00;;;;;;;1.79;100.00;101203.53;5030280;28;20062;-78
2024/01/14 06:42:16;;;;;;;39.47;18.85;;;;;;;1.79;100.00;101206.91;5024180;28;20045;-79
2024/01/14 06:44:42;;;;;;;36.53;18.73;;;;;;;1.77;100.00;101203.16;5024120;28;20034;-79
2024/01/14 06:47:09;;;;;;;37.25;18.30;;;;;;;1.76;100.00;101199.03;5022858;28;20047;-79
2024/01/14 06:49:35;;;;;;;41.03;20.02;;;;;;;1.74;100.00;101199.41;5033774;28;20094;-79
2024/01/14 06:52:05;;;;;;;36.10;18.90;;;;;;;1.75;100.00;101200.16;5043964;28;20140;-79
2024/01/14 06:54:31;;;;;;;41.33;20.17;;;;;;;1.74;100.00;101188.91;5026224;28;20054;-79
2024/01/14 06:56:59;;;;;;;41.05;19.73;;;;;;;1.72;100.00;101199.00;5024838;28;20060;-79
2024/01/14 06:59:25;;;;;;;35.38;18.02;;;;;;;1.73;100.00;101191.88;5020761;28;20881;-79
2024/01/14 07:01:52;;;;;;;36.65;18.27;;;;;;;1.72;100.00;101193.00;5026759;28;20113;-79
2024/01/14 07:04:19;;;;;;;42.88;20.85;;;;;;;1.72;100.00;101196.38;5027179;28;20145;-78
2024/01/14 07:06:48;;;;;;;39.60;20.48;;;;;;;1.72;100.00;101190.38;5025759;28;20110;-79
2024/01/14 07:09:14;;;;;;;41.38;20.83;;;;;;;1.73;100.00;101194.50;5027720;28;20039;-78
2024/01/14 07:11:41;;;;;;;42.25;20.67;;;;;;;1.74;100.00;101191.53;5019190;28;21008;-78
2024/01/14 07:14:08;;;;;;;40.08;18.95;;;;;;;1.73;100.00;101186.63;5029417;28;20054;-79
2024/01/14 07:16:35;;;;;;;43.67;19.70;;;;;;;1.72;100.00;101185.13;5019056;28;20686;-78
2024/01/14 07:19:02;;;;;;;37.10;18.50;;;;;;;1.72;100.00;101182.50;5027263;28;20909;-79
2024/01/14 07:21:31;;;;;;;40.15;18.95;;;;;;;1.71;100.00;101186.25;5030752;28;20038;-79
2024/01/14 07:24:00;;;;;;;43.03;19.83;;;;;;;1.69;100.00;101186.63;5019721;28;20805;-79
2024/01/14 07:26:27;;;;;;;45.80;20.42;;;;;;;1.68;100.00;101188.50;5026468;28;20046;-79
2024/01/14 07:28:54;;;;;;;40.83;20.25;;;;;;;1.68;100.00;101188.50;5029771;28;20121;-80
2024/01/14 07:31:26;;;;;;;46.80;19.02;;;;;;;1.68;100.00;101191.13;5034354;28;20098;-80
2024/01/14 07:33:53;;;;;;;38.58;18.67;;;;;;;1.69;100.00;101194.50;5022948;28;20101;-80
2024/01/14 07:36:20;;;;;;;41.85;19.30;;;;;;;1.68;100.00;101196.34;5045788;22;20137;-76
2024/01/14 07:38:50;;;;;;;44.35;20.98;;;;;;;1.69;100.00;101189.25;5021765;28;20155;-78
2024/01/14 07:41:17;;;;;;;38.20;19.38;;;;;;;1.70;100.00;101190.75;5024263;28;20053;-81
2024/01/14 07:43:44;;;;;;;39.83;19.58;;;;;;;1.71;100.00;101189.63;5026258;28;20054;-78
2024/01/14 07:46:11;;;;;;;44.08;18.55;;;;;;;1.71;100.00;101192.25;5023723;28;20050;-78
2024/01/14 07:48:38;;;;;;;35.47;17.88;;;;;;;1.70;100.00;101195.25;5022926;28;20042;-78
2024/01/14 07:51:05;;;;;;;42.83;18.48;;;;;;;1.70;100.00;101180.25;5017228;28;20114;-78
2024/01/14 07:53:32;;;;;;;45.80;19.15;;;;;;;1.70;100.00;101182.13;5026996;28;20088;-79
2024/01/14 07:56:00;;;;;;;40.85;19.50;;;;;;;1.72;100.00;101187.75;5022998;28;20046;-79
2024/01/14 07:58:27;;;;;;;39.58;19.27;;;;;;;1.73;100.00;101190.00;5018032;28;20054;-78
2024/01/14 08:00:53;;;;;;;43.60;19.83;;;;;;;1.72;100.00;101196.38;5026587;28;20050;-78
2024/01/14 08:03:29;;;;;;;41.08;19.05;;;;;;;1.73;100.00;101195.25;5019358;28;20559;-79
2024/01/14 08:05:58;;;;;;;43.80;18.45;;;;;;;1.75;100.00;101189.66;5018403;28;20108;-78
2024/01/14 08:08:25;;;;;;;45.13;19.08;;;;;;;1.75;100.00;101189.66;5018858;28;20042;-79
2024/01/14 08:10:51;;;;;;;38.35;19.27;;;;;;;1.76;100.00;101193.78;5021827;28;20502;-78
2024/01/14 08:13:19;;;;;;;36.00;17.65;;;;;;;1.77;100.00;101182.16;5018486;28;20137;-78
2024/01/14 08:15:46;;;;;;;43.08;19.30;;;;;;;1.79;100.00;101182.53;5022353;28;20043;-78
2024/01/14 08:18:27;;;;;;;36.10;18.47;;;;;;;1.80;100.00;101182.19;5019802;28;20049;-79
2024/01/14 08:20:54;;;;;;;43.42;19.45;;;;;;;1.80;100.00;101186.66;5012418;28;20078;-79
2024/01/14 08:23:22;;;;;;;40.85;19.88;;;;;;;1.81;100.00;101182.94;5012037;28;20077;-79
2024/01/14 08:25:49;;;;;;;38.45;17.65;;;;;;;1.82;100.00;101181.81;5013261;28;20043;-79
2024/01/14 08:28:15;;;;;;;36.47;17.73;;;;;;;1.82;100.00;101173.94;5025242;28;20041;-79
2024/01/14 08:30:42;;;;;;;42.55;17.92;;;;;;;1.81;100.00;101173.19;5013951;28;20129;-79
2024/01/14 08:33:09;;;;;;;41.75;18.02;;;;;;;1.83;100.00;101157.81;5023030;28;20042;-78
2024/01/14 08:35:36;;;;;;;34.75;17.13;;;;;;;1.84;100.00;101155.94;5014914;28;20058;-78
2024/01/14 08:38:02;;;;;;;32.38;17.40;;;;;;;1.84;100.00;101148.06;5018882;28;20807;-79
2024/01/14 08:40:29;;;;;;;32.65;17.25;;;;;;;1.84;100.00;101155.94;5020119;28;20330;-73
2024/01/14 08:42:56;;;;;;;33.75;16.38;;;;;;;1.84;100.00;101161.94;5023072;28;20050;-74
2024/01/14 08:45:22;;;;;;;36.95;17.27;;;;;;;1.85;100.00;101160.06;5022702;28;20038;-73
2024/01/14 08:47:49;;;;;;;34.75;16.45;;;;;;;1.85;100.00;101155.56;5023769;28;20496;-74
2024/01/14 08:50:18;;;;;;;34.42;16.25;;;;;;;1.87;100.00;101155.97;5022927;28;20053;-74
2024/01/14 08:52:44;;;;;;;39.42;17.38;;;;;;;1.87;100.00;101150.72;5026824;28;20052;-74
2024/01/14 08:55:11;;;;;;;35.10;15.63;;;;;;;1.88;100.00;101149.59;5026279;28;20042;-74
2024/01/14 08:57:39;;;;;;;33.50;16.40;;;;;;;1.89;100.00;101147.72;5019972;28;20524;-74
2024/01/14 09:00:06;;;;;;;32.85;16.08;;;;;;;1.91;100.00;101148.09;5015113;28;20077;-74
2024/01/14 09:02:33;;;;;;;32.90;15.55;;;;;;;1.90;100.00;101147.34;5023919;28;20054;-73
2024/01/14 09:05:00;;;;;;;33.90;16.60;;;;;;;1.93;100.00;101151.09;5026074;28;20073;-75
2024/01/14 09:07:26;;;;;;;39.83;17.75;;;;;;;1.94;100.00;101136.84;5020432;28;20038;-75
2024/01/14 09:09:53;;;;;;;33.58;16.17;;;;;;;1.96;100.00;101145.88;5022815;28;20121;-75
2024/01/14 09:12:20;;;;;;;34.88;15.50;;;;;;;1.97;100.00;101144.75;5025950;28;20046;-74
2024/01/14 09:14:46;;;;;;;32.72;16.50;;;;;;;1.96;100.00;101134.63;5024411;28;20081;-75
2024/01/14 09:17:13;;;;;;;36.67;17.48;;;;;;;1.96;100.00;101132.75;5026476;28;20084;-75
2024/01/14 09:19:40;;;;;;;43.83;17.83;;;;;;;1.97;100.00;101130.88;5018999;28;20509;-76
2024/01/14 09:22:07;;;;;;;33.10;16.63;;;;;;;1.98;100.00;101125.25;5023818;28;20054;-74
2024/01/14 09:24:33;;;;;;;37.72;16.05;;;;;;;2.00;100.00;101122.22;5025399;28;20150;-74
2024/01/14 09:27:00;;;;;;;37.35;17.95;;;;;;;2.02;100.00;101122.59;5019700;28;20046;-73
2024/01/14 09:29:27;;;;;;;37.03;17.67;;;;;;;2.07;100.00;101121.50;5024798;28;20053;-72
2024/01/14 09:31:54;;;;;;;36.70;18.02;;;;;;;2.10;100.00;101124.13;5021426;28;20054;-73
2024/01/14 09:34:20;;;;;;;36.55;18.08;;;;;;;2.14;100.00;101119.63;5025705;28;20042;-73
2024/01/14 09:36:47;;;;;;;33.15;17.25;;;;;;;2.18;100.00;101124.91;5023549;28;20054;-76
2024/01/14 09:39:14;;;;;;;35.58;16.40;;;;;;;2.20;100.00;101122.66;5023171;28;20042;-76
2024/01/14 09:42:00;;;;;;;30.33;16.67;;;;;;;2.22;100.00;101121.16;5021219;28;20416;-74
2024/01/14 09:44:27;;;;;;;31.45;16.30;;;;;;;2.25;100.00;101125.69;5021146;28;20514;-72
2024/01/14 09:46:55;;;;;;;33.42;16.23;;;;;;;2.26;100.00;101118.53;5022335;28;20883;-76
2024/01/14 09:49:22;;;;;;;40.20;17.95;;;;;;;2.27;100.00;101126.06;5021286;28;20051;-72
2024/01/14 09:51:49;;;;;;;37.25;17.58;;;;;;;2.31;100.00;101133.94;5025335;28;20049;-72
2024/01/14 09:54:16;;;;;;;39.22;16.75;;;;;;;2.28;100.00;101142.56;5021274;28;20049;-74
2024/01/14 09:56:44;;;;;;;40.63;18.58;;;;;;;2.26;100.00;101140.31;5019647;28;20053;-73
2024/01/14 09:59:16;;;;;;;39.03;19.25;;;;;;;2.26;100.00;101142.94;5025513;28;20050;-73
2024/01/14 10:01:43;;;;;;;32.55;18.67;;;;;;;2.25;100.00;101143.31;5021681;28;20555;-73
2024/01/14 10:04:11;;;;;;;36.63;17.88;;;;;;;2.25;100.00;101145.94;5021987;28;20042;-72
2024/01/14 10:06:40;;;;;;;46.88;18.98;;;;;;;2.24;100.00;101144.44;5022698;28;20842;-72
2024/01/14 10:09:08;;;;;;;39.65;16.77;;;;;;;2.24;100.00;101139.19;5023296;28;20081;-73
2024/01/14 10:11:35;;;;;;;42.95;18.13;;;;;;;2.24;100.00;101136.56;5023878;28;20046;-72
2024/01/14 10:14:02;;;;;;;36.53;18.17;;;;;;;2.24;100.00;101139.19;5026246;28;20039;-79
2024/01/14 10:16:30;;;;;;;39.35;18.95;;;;;;;2.25;100.00;101132.81;5026077;28;20039;-79
2024/01/14 10:19:17;;;;;;;37.22;17.35;;;;;;;2.24;100.00;101121.53;5023415;28;20101;-79
2024/01/14 10:21:43;;;;;;;38.65;17.80;;;;;;;2.25;100.00;101115.16;5030520;28;20065;-78
2024/01/14 10:24:10;;;;;;;40.78;18.65;;;;;;;2.26;100.00;101114.03;5039649;28;20046;-78
2024/01/14 10:26:37;;;;;;;40.53;18.40;;;;;;;2.29;100.00;101108.03;5033838;28;20049;-78
2024/01/14 10:29:03;;;;;;;39.72;18.20;;;;;;;2.31;100.00;101090.03;5028308;28;20057;-79
2024/01/14 10:31:31;;;;;;;35.10;17.38;;;;;;;2.35;100.00;101090.03;5025012;28;20970;-79
2024/01/14 10:34:00;;;;;;;38.35;17.90;;;;;;;2.38;100.00;101078.78;5026242;28;20074;-78
2024/01/14 10:36:28;;;;;;;36.97;17.27;;;;;;;2.40;100.00;101081.03;5026062;28;20138;-78
2024/01/14 10:38:59;;;;;;;40.38;17.90;;;;;;;2.44;100.00;101076.50;5033642;28;20563;-79
2024/01/14 10:41:26;;;;;;;38.38;17.67;;;;;;;2.47;100.00;101079.13;5025438;28;20808;-79
2024/01/14 10:43:53;;;;;;;27.63;15.93;;;;;;;2.46;100.00;101080.25;5029577;28;20053;-79
2024/01/14 10:46:22;;;;;;;33.78;16.25;;;;;;;2.46;100.00;101072.38;5023058;28;20046;-78
2024/01/14 10:48:52;;;;;;;28.33;15.75;;;;;;;2.49;100.00;101060.38;5028476;28;20052;-78
2024/01/14 10:51:20;;;;;;;30.08;15.45;;;;;;;2.51;100.00;101060.75;5031865;28;20752;-78
2024/01/14 10:53:53;;;;;;;32.55;16.63;;;;;;;2.50;100.00;101056.63;5028485;28;20071;-79
2024/01/14 10:56:30;;;;;;;30.80;16.75;;;;;;;2.53;100.00;101061.13;5022565;28;20046;-79
2024/01/14 10:59:01;;;;;;;29.15;15.80;;;;;;;2.57;100.00;101051.38;5024769;28;20065;-79
2024/01/14 11:01:31;;;;;;;25.23;15.00;;;;;;;2.54;100.00;101044.97;5027900;28;20042;-79
2024/01/14 11:04:00;;;;;;;28.38;15.30;;;;;;;2.59;100.00;101043.84;5031724;28;20106;-79
2024/01/14 11:06:28;;;;;;;28.88;15.48;;;;;;;2.65;100.00;101035.22;5037458;28;20078;-79
2024/01/14 11:08:55;;;;;;;28.92;14.57;;;;;;;2.71;100.00;101025.06;5036055;28;20037;-78